Time;durP1;ratioP1;P1;durP2;ratioP2;P2;SDS_P1;SDS_P2;PMS_P1;PMS_P2;Temp;Humidity;BMP_temperature;BMP_pressure;BME280_temperature;BME280_humidity;BME280_pressure;Samples;Min_cycle;Max_cycle;Signal;HPM_P1;HPM_P2
2023/07/28 00:01:30;;;;;;;3.03;2.58;;;16.60;99.90;;;;;;5162765;27;20176;-82
2023/07/28 00:03:57;;;;;;;2.97;2.78;;;16.60;99.90;;;;;;5163825;27;20176;-81
2023/07/28 00:06:23;;;;;;;3.15;2.95;;;16.70;99.90;;;;;;5162713;27;20199;-82
2023/07/28 00:08:48;;;;;;;3.15;2.70;;;16.70;99.90;;;;;;5163494;27;20705;-82
2023/07/28 00:11:15;;;;;;;3.60;3.30;;;16.70;99.90;;;;;;5162645;27;20198;-82
2023/07/28 00:13:42;;;;;;;2.92;2.72;;;16.70;99.90;;;;;;5145539;27;20179;-82
2023/07/28 00:16:09;;;;;;;3.72;2.75;;;16.70;99.90;;;;;;5146156;27;20200;-82
2023/07/28 00:18:34;;;;;;;3.13;2.83;;;16.70;99.90;;;;;;5145637;27;20194;-82
2023/07/28 00:21:00;;;;;;;3.03;2.70;;;16.70;99.90;;;;;;5163743;27;20168;-82
2023/07/28 00:23:26;;;;;;;3.17;2.88;;;16.70;99.90;;;;;;5162686;27;20258;-82
2023/07/28 00:25:52;;;;;;;2.88;2.67;;;16.70;99.90;;;;;;5162854;27;20211;-82
2023/07/28 00:28:17;;;;;;;3.20;2.90;;;16.70;99.90;;;;;;5163100;27;20189;-82
2023/07/28 00:30:43;;;;;;;3.30;3.10;;;16.60;99.90;;;;;;5163105;27;20191;-82
2023/07/28 00:33:08;;;;;;;2.67;2.58;;;16.60;99.90;;;;;;5162372;27;20168;-82
2023/07/28 00:35:34;;;;;;;2.80;2.60;;;16.60;99.90;;;;;;5162378;27;20168;-82
2023/07/28 00:38:00;;;;;;;2.78;2.58;;;16.70;99.90;;;;;;5162113;27;20282;-82
2023/07/28 00:40:25;;;;;;;3.00;2.80;;;16.60;99.90;;;;;;5163245;27;20168;-82
2023/07/28 00:42:51;;;;;;;2.90;2.70;;;16.60;99.90;;;;;;5162323;27;20707;-81
2023/07/28 00:45:16;;;;;;;2.75;2.55;;;16.60;99.90;;;;;;5162482;27;20172;-81
2023/07/28 00:47:42;;;;;;;2.90;2.60;;;16.60;99.90;;;;;;5162704;27;20217;-81
2023/07/28 00:50:11;;;;;;;3.00;2.80;;;16.60;99.90;;;;;;5145742;28;20188;-81
2023/07/28 00:52:38;;;;;;;2.70;2.50;;;16.60;99.90;;;;;;5162263;27;20180;-81
2023/07/28 00:55:06;;;;;;;2.97;2.58;;;16.60;99.90;;;;;;5147669;27;20248;-81
2023/07/28 00:57:33;;;;;;;3.25;3.00;;;16.60;99.90;;;;;;5148423;27;20237;-82
2023/07/28 00:59:59;;;;;;;2.83;2.60;;;16.60;99.90;;;;;;5149736;27;20172;-81
2023/07/28 01:20:34;;;;;;;2.42;2.30;;;16.50;99.90;;;;;;5713458;22;20283;-86
2023/07/28 01:23:13;;;;;;;2.35;2.25;;;16.50;99.90;;;;;;5038457;28;20174;-86
2023/07/28 01:26:04;;;;;;;2.13;1.95;;;16.50;99.90;;;;;;5056497;28;20197;-86
2023/07/28 01:28:32;;;;;;;2.45;2.08;;;16.50;99.90;;;;;;5038502;28;20182;-86
2023/07/28 01:31:02;;;;;;;2.30;2.10;;;16.50;99.90;;;;;;5038100;28;20189;-86
2023/07/28 01:33:29;;;;;;;3.17;2.28;;;16.50;99.90;;;;;;5037840;28;20202;-86
2023/07/28 01:35:55;;;;;;;2.40;2.30;;;16.50;99.90;;;;;;5038341;28;20209;-86
2023/07/28 01:38:21;;;;;;;2.40;2.20;;;16.50;99.90;;;;;;5038143;28;20209;-86
2023/07/28 01:40:47;;;;;;;2.42;2.28;;;16.50;99.90;;;;;;5038875;28;20273;-86
2023/07/28 01:43:13;;;;;;;2.97;2.40;;;16.50;99.90;;;;;;5038851;28;20218;-86
2023/07/28 01:45:38;;;;;;;2.97;2.63;;;16.50;99.90;;;;;;5037851;28;20202;-86
2023/07/28 01:48:05;;;;;;;2.30;2.20;;;16.50;99.90;;;;;;5038459;28;20186;-86
2023/07/28 01:50:31;;;;;;;2.10;2.00;;;16.50;99.90;;;;;;5037903;28;20263;-87
2023/07/28 01:52:57;;;;;;;3.42;2.22;;;16.50;99.90;;;;;;5038050;28;20217;-87
2023/07/28 01:55:22;;;;;;;3.65;2.28;;;16.50;99.90;;;;;;5037950;28;20236;-87
2023/07/28 01:57:58;;;;;;;2.78;2.42;;;16.50;99.90;;;;;;5037463;28;20210;-86
2023/07/28 02:00:27;;;;;;;2.33;2.10;;;16.50;99.90;;;;;;5037638;28;20166;-87
2023/07/28 02:02:54;;;;;;;2.60;2.40;;;16.50;99.90;;;;;;5037412;28;20261;-86
2023/07/28 02:05:20;;;;;;;4.53;2.13;;;16.50;99.90;;;;;;5037653;28;20609;-87
2023/07/28 02:07:45;;;;;;;2.63;2.40;;;16.50;99.90;;;;;;5037287;28;20178;-87
2023/07/28 02:10:11;;;;;;;3.05;2.13;;;16.40;99.90;;;;;;5037245;28;20255;-87
2023/07/28 02:12:38;;;;;;;2.15;2.05;;;16.40;99.90;;;;;;5037680;28;20265;-87
2023/07/28 02:15:06;;;;;;;2.13;2.03;;;16.40;99.90;;;;;;5055665;28;20568;-86
2023/07/28 02:17:32;;;;;;;1.98;1.85;;;16.40;99.90;;;;;;5053677;28;20241;-87
2023/07/28 02:19:57;;;;;;;2.30;2.10;;;16.50;99.90;;;;;;5037468;28;20597;-87
2023/07/28 02:22:26;;;;;;;2.10;1.95;;;16.40;99.90;;;;;;5037100;28;20246;-86
2023/07/28 02:24:51;;;;;;;2.78;2.10;;;16.40;99.90;;;;;;5037384;28;20189;-86
2023/07/28 02:27:17;;;;;;;2.78;1.70;;;16.40;99.90;;;;;;5037902;28;20206;-86
2023/07/28 02:29:43;;;;;;;2.22;1.98;;;16.30;99.90;;;;;;5037440;28;20178;-86
2023/07/28 02:32:09;;;;;;;1.63;1.52;;;16.40;99.90;;;;;;5037267;28;20186;-87
2023/07/28 02:34:44;;;;;;;1.90;1.77;;;16.30;99.90;;;;;;5037096;28;20182;-86
2023/07/28 02:37:10;;;;;;;1.70;1.60;;;16.30;99.90;;;;;;5036626;28;20205;-86
2023/07/28 02:39:35;;;;;;;3.50;1.50;;;16.30;99.90;;;;;;5036791;28;20270;-86
2023/07/28 02:42:01;;;;;;;2.08;1.58;;;16.30;99.90;;;;;;5037048;28;20809;-86
2023/07/28 02:44:30;;;;;;;1.80;1.70;;;16.30;99.90;;;;;;5037044;28;20202;-87
2023/07/28 02:46:56;;;;;;;1.70;1.60;;;16.30;99.90;;;;;;5037019;28;20285;-86
2023/07/28 02:49:22;;;;;;;3.38;1.70;;;16.30;99.90;;;;;;5036808;28;20208;-86
2023/07/28 02:51:48;;;;;;;1.40;1.30;;;16.30;99.90;;;;;;5036847;28;20655;-86
2023/07/28 02:54:13;;;;;;;1.33;1.23;;;16.30;99.90;;;;;;5037350;28;20190;-86
2023/07/28 02:56:40;;;;;;;1.80;1.70;;;16.40;99.90;;;;;;5036472;28;20568;-86
2023/07/28 02:59:06;;;;;;;1.58;1.48;;;16.40;99.90;;;;;;5036725;28;20656;-86
2023/07/28 03:01:35;;;;;;;1.50;1.40;;;16.30;99.90;;;;;;5036224;28;20178;-86
2023/07/28 03:04:02;;;;;;;2.78;1.80;;;16.30;99.90;;;;;;5036430;28;20175;-86
2023/07/28 03:06:28;;;;;;;1.60;1.50;;;16.40;99.90;;;;;;5035993;28;20220;-86
2023/07/28 03:08:54;;;;;;;1.65;1.50;;;16.40;99.90;;;;;;5035989;28;20182;-86
2023/07/28 03:11:20;;;;;;;1.42;1.30;;;16.40;99.90;;;;;;5036384;28;20186;-86
2023/07/28 03:13:45;;;;;;;1.48;1.40;;;16.40;99.90;;;;;;5036055;28;20181;-86
2023/07/28 03:16:12;;;;;;;1.63;1.58;;;16.40;99.90;;;;;;5035966;28;20209;-86
2023/07/28 03:18:38;;;;;;;1.50;1.50;;;16.40;99.90;;;;;;5036227;28;20178;-86
2023/07/28 03:21:04;;;;;;;1.67;1.40;;;16.40;99.90;;;;;;5036231;28;20563;-86
2023/07/28 03:23:30;;;;;;;3.28;1.50;;;16.40;99.90;;;;;;5035901;28;20273;-86
2023/07/28 03:25:55;;;;;;;4.40;1.40;;;16.40;99.90;;;;;;5036346;28;20252;-86
2023/07/28 03:28:21;;;;;;;1.40;1.40;;;16.40;99.90;;;;;;5036129;28;20327;-86
2023/07/28 03:30:47;;;;;;;2.35;1.25;;;16.40;99.90;;;;;;5036148;28;20220;-87
2023/07/28 03:33:12;;;;;;;2.58;1.33;;;16.40;99.90;;;;;;5036805;28;20179;-87
2023/07/28 03:35:38;;;;;;;1.70;1.50;;;16.40;99.90;;;;;;5035487;28;20575;-86
2023/07/28 03:38:04;;;;;;;1.27;1.27;;;16.40;99.90;;;;;;5035675;28;20206;-87
2023/07/28 03:40:30;;;;;;;1.65;1.55;;;16.40;99.90;;;;;;5036248;28;20228;-87
2023/07/28 03:42:57;;;;;;;1.38;1.35;;;16.40;99.90;;;;;;5035887;28;20202;-86
2023/07/28 03:45:23;;;;;;;1.30;1.20;;;16.40;99.90;;;;;;5036051;28;20188;-86
2023/07/28 03:47:48;;;;;;;1.95;1.50;;;16.40;99.90;;;;;;5036023;28;20182;-86
2023/07/28 03:50:14;;;;;;;1.67;1.58;;;16.40;99.90;;;;;;5035728;28;20285;-86
2023/07/28 03:52:40;;;;;;;1.60;1.50;;;16.40;99.90;;;;;;5035848;28;20743;-86
2023/07/28 03:55:06;;;;;;;1.92;1.50;;;16.40;99.90;;;;;;5035728;28;20190;-86
2023/07/28 03:57:32;;;;;;;1.73;1.63;;;16.30;99.90;;;;;;5035913;28;20228;-86
2023/07/28 03:59:57;;;;;;;1.50;1.40;;;16.40;99.90;;;;;;5035478;28;20178;-86
2023/07/28 04:02:23;;;;;;;1.48;1.40;;;16.30;99.90;;;;;;5035742;28;20181;-87
2023/07/28 04:04:58;;;;;;;1.30;1.30;;;16.30;99.90;;;;;;5035559;28;20170;-86
2023/07/28 04:07:24;;;;;;;1.67;1.50;;;16.40;99.90;;;;;;5035403;28;20197;-86
2023/07/28 04:09:50;;;;;;;1.50;1.50;;;16.30;99.90;;;;;;5035689;28;20183;-86
2023/07/28 04:12:15;;;;;;;1.35;1.25;;;16.40;99.90;;;;;;5035763;28;20269;-86
2023/07/28 04:14:41;;;;;;;2.80;1.40;;;16.40;99.90;;;;;;5036384;28;20243;-86
2023/07/28 04:17:07;;;;;;;2.03;1.50;;;16.40;99.90;;;;;;5036631;28;20213;-85
2023/07/28 04:19:33;;;;;;;2.40;1.45;;;16.50;99.90;;;;;;5035240;28;20656;-86
2023/07/28 04:22:00;;;;;;;2.80;1.30;;;16.40;99.90;;;;;;5053309;28;20182;-85
2023/07/28 04:24:26;;;;;;;1.40;1.30;;;16.50;99.90;;;;;;5035705;28;20178;-85
2023/07/28 04:26:53;;;;;;;1.63;1.40;;;16.50;99.90;;;;;;5036291;28;20256;-85
2023/07/28 04:29:19;;;;;;;1.42;1.27;;;16.50;99.90;;;;;;5037065;28;20201;-86
2023/07/28 04:31:44;;;;;;;1.40;1.40;;;16.50;99.90;;;;;;5039449;28;20174;-86
2023/07/28 04:34:40;;;;;;;1.50;1.40;;;16.60;99.90;;;;;;5039724;28;20189;-85
2023/07/28 04:37:06;;;;;;;2.10;1.35;;;16.60;99.90;;;;;;5039555;28;20210;-85
2023/07/28 04:39:31;;;;;;;3.22;1.58;;;16.60;99.90;;;;;;5039610;28;20170;-85
2023/07/28 04:41:59;;;;;;;1.85;1.50;;;16.60;99.90;;;;;;5039222;28;20163;-86
2023/07/28 04:44:25;;;;;;;3.08;1.58;;;16.60;99.90;;;;;;5039240;28;20198;-85
2023/07/28 04:46:50;;;;;;;1.77;1.63;;;16.60;99.90;;;;;;5039631;28;20241;-85
2023/07/28 04:49:16;;;;;;;3.80;1.70;;;16.60;99.90;;;;;;5038969;28;20171;-85
2023/07/28 04:51:42;;;;;;;2.15;1.50;;;16.70;99.90;;;;;;5038703;28;20190;-85
2023/07/28 04:54:07;;;;;;;2.35;1.60;;;16.70;99.90;;;;;;5038646;28;20178;-85
2023/07/28 04:56:33;;;;;;;1.58;1.48;;;16.70;99.90;;;;;;5038848;28;20206;-86
2023/07/28 04:58:59;;;;;;;3.15;1.67;;;16.70;99.90;;;;;;5038897;28;20621;-85
2023/07/28 05:01:25;;;;;;;1.50;1.40;;;16.70;99.90;;;;;;5040236;28;20189;-87
2023/07/28 05:03:50;;;;;;;1.40;1.30;;;16.60;99.90;;;;;;5039349;28;20201;-87
2023/07/28 05:06:17;;;;;;;1.73;1.63;;;16.70;99.90;;;;;;5038406;28;20194;-87
2023/07/28 05:08:43;;;;;;;1.70;1.60;;;16.70;99.90;;;;;;5038611;28;20201;-87
2023/07/28 05:11:08;;;;;;;1.63;1.55;;;16.70;99.90;;;;;;5038506;28;20620;-87
2023/07/28 05:13:39;;;;;;;1.60;1.50;;;16.70;99.90;;;;;;5038467;28;20174;-87
2023/07/28 05:16:11;;;;;;;1.42;1.40;;;16.70;99.90;;;;;;5027333;28;20723;-84
2023/07/28 05:18:37;;;;;;;4.35;1.52;;;16.70;99.90;;;;;;5039601;28;20174;-84
2023/07/28 05:21:03;;;;;;;1.50;1.40;;;16.80;99.90;;;;;;5039369;28;20204;-86
2023/07/28 05:23:28;;;;;;;1.58;1.48;;;16.90;99.90;;;;;;5038691;28;20227;-85
2023/07/28 05:25:54;;;;;;;1.60;1.50;;;16.90;99.90;;;;;;5040085;28;20289;-85
2023/07/28 05:28:20;;;;;;;1.60;1.30;;;17.10;99.90;;;;;;5039342;28;20174;-85
2023/07/28 05:30:45;;;;;;;1.67;1.50;;;17.20;99.90;;;;;;5038623;28;20249;-86
2023/07/28 05:33:11;;;;;;;2.50;1.50;;;17.40;99.90;;;;;;5038580;28;20205;-85
2023/07/28 05:35:37;;;;;;;1.98;1.60;;;17.50;99.90;;;;;;5038666;28;20560;-85
2023/07/28 05:38:02;;;;;;;2.90;1.55;;;17.50;99.90;;;;;;5038247;28;20255;-86
2023/07/28 05:40:28;;;;;;;1.70;1.50;;;17.50;99.90;;;;;;5038127;28;20178;-85
2023/07/28 05:42:54;;;;;;;1.63;1.52;;;17.60;99.90;;;;;;5037987;28;20178;-85
2023/07/28 05:45:19;;;;;;;1.20;1.20;;;17.60;99.90;;;;;;5038360;28;20181;-85
2023/07/28 05:47:45;;;;;;;1.70;1.60;;;17.70;99.90;;;;;;5037927;28;20553;-85
2023/07/28 05:50:11;;;;;;;1.45;1.30;;;17.80;99.90;;;;;;5038399;28;20228;-85
2023/07/28 05:52:36;;;;;;;2.30;1.45;;;17.80;99.90;;;;;;5038443;28;20181;-85
2023/07/28 05:55:02;;;;;;;1.50;1.40;;;18.00;99.90;;;;;;5037736;28;20196;-85
2023/07/28 05:57:28;;;;;;;3.60;1.40;;;18.20;99.90;;;;;;5037819;28;20236;-85
2023/07/28 05:59:53;;;;;;;1.40;1.30;;;18.20;99.90;;;;;;5037977;28;20182;-84
2023/07/28 06:02:19;;;;;;;1.25;1.15;;;18.40;99.90;;;;;;5037731;28;20638;-85
2023/07/28 06:04:45;;;;;;;1.27;1.17;;;18.40;99.90;;;;;;5037749;28;20175;-84
2023/07/28 06:07:11;;;;;;;1.30;1.20;;;18.50;99.90;;;;;;5037484;28;20205;-84
2023/07/28 06:09:37;;;;;;;2.72;1.20;;;18.70;99.90;;;;;;5037196;28;20178;-85
2023/07/28 06:12:03;;;;;;;1.20;1.20;;;18.90;99.90;;;;;;5037834;28;20273;-85
2023/07/28 06:14:29;;;;;;;1.88;1.30;;;19.00;99.90;;;;;;5037594;28;20197;-84
2023/07/28 06:16:55;;;;;;;1.05;1.05;;;19.10;99.90;;;;;;5037508;28;20676;-85
2023/07/28 06:19:23;;;;;;;2.53;1.25;;;19.10;99.90;;;;;;5037806;28;20174;-85
2023/07/28 06:21:50;;;;;;;1.13;1.10;;;19.20;99.90;;;;;;5037496;28;20200;-84
2023/07/28 06:24:16;;;;;;;1.40;1.30;;;19.30;99.90;;;;;;5037330;28;20197;-84
2023/07/28 06:26:42;;;;;;;1.48;1.38;;;19.40;99.90;;;;;;5037147;28;20213;-84
2023/07/28 06:29:07;;;;;;;2.78;1.40;;;19.40;99.90;;;;;;5037253;28;20182;-84
2023/07/28 06:31:41;;;;;;;1.30;1.20;;;19.50;99.90;;;;;;5037982;28;20512;-84
2023/07/28 06:34:07;;;;;;;3.00;1.30;;;19.70;99.90;;;;;;5037454;28;20633;-85
2023/07/28 06:36:33;;;;;;;2.55;1.13;;;19.70;99.90;;;;;;5036810;28;20215;-84
2023/07/28 06:38:58;;;;;;;1.40;1.30;;;19.50;99.90;;;;;;5037038;28;20189;-84
2023/07/28 06:41:24;;;;;;;2.83;1.52;;;19.30;99.90;;;;;;5037196;28;20718;-84
2023/07/28 06:43:49;;;;;;;2.53;1.20;;;19.10;99.90;;;;;;5036931;28;20305;-84
2023/07/28 06:46:15;;;;;;;2.35;1.23;;;19.00;99.90;;;;;;5036476;28;20284;-85
2023/07/28 06:48:41;;;;;;;1.30;1.30;;;18.90;99.90;;;;;;5037199;28;20240;-84
2023/07/28 06:51:06;;;;;;;1.60;1.23;;;18.80;99.90;;;;;;5036578;28;20260;-84
2023/07/28 06:53:34;;;;;;;1.55;1.40;;;18.80;99.90;;;;;;5037020;28;20181;-84
2023/07/28 06:56:00;;;;;;;1.30;1.30;;;18.80;99.90;;;;;;5036735;28;20602;-85
2023/07/28 06:58:25;;;;;;;2.83;1.27;;;18.90;99.90;;;;;;5036921;28;20213;-84
2023/07/28 07:00:51;;;;;;;1.65;1.30;;;18.90;99.90;;;;;;5037638;28;20182;-84
2023/07/28 07:03:17;;;;;;;1.20;1.20;;;18.90;99.90;;;;;;5037220;28;20166;-84
2023/07/28 07:05:43;;;;;;;1.35;1.25;;;18.90;99.90;;;;;;5036426;28;20261;-84
2023/07/28 07:08:09;;;;;;;2.70;1.40;;;18.90;99.90;;;;;;5035962;28;20239;-84
2023/07/28 07:10:35;;;;;;;1.25;1.25;;;18.80;99.90;;;;;;5036373;28;20182;-84
2023/07/28 07:13:01;;;;;;;1.75;1.30;;;18.90;99.90;;;;;;5036539;28;20182;-84
2023/07/28 07:15:26;;;;;;;1.30;1.23;;;19.00;99.90;;;;;;5037146;28;20214;-84
2023/07/28 07:17:52;;;;;;;1.77;1.40;;;19.00;99.90;;;;;;5037156;28;20202;-84
2023/07/28 07:20:17;;;;;;;1.48;1.42;;;19.10;99.90;;;;;;5036773;28;20656;-84
2023/07/28 07:22:43;;;;;;;1.65;1.55;;;19.10;99.90;;;;;;5036561;28;20218;-84
2023/07/28 07:25:09;;;;;;;1.48;1.30;;;19.30;99.90;;;;;;5036758;28;20659;-85
2023/07/28 07:27:34;;;;;;;2.45;1.30;;;19.50;99.90;;;;;;5036514;28;20202;-85
2023/07/28 07:30:00;;;;;;;2.92;1.20;;;19.70;99.90;;;;;;5036183;28;20265;-84
2023/07/28 07:32:26;;;;;;;1.10;1.10;;;19.90;99.90;;;;;;5035957;28;20181;-85
2023/07/28 07:34:53;;;;;;;1.30;1.20;;;20.10;99.90;;;;;;5036890;28;20592;-84
2023/07/28 07:37:18;;;;;;;1.52;1.15;;;20.30;99.90;;;;;;5035901;28;20296;-85
2023/07/28 07:39:44;;;;;;;2.38;1.30;;;20.50;99.90;;;;;;5035842;28;20265;-84
2023/07/28 07:42:11;;;;;;;3.17;1.15;;;20.60;99.90;;;;;;5035926;28;20271;-84
2023/07/28 07:44:37;;;;;;;1.48;1.10;;;20.50;99.90;;;;;;5035833;28;20181;-84
2023/07/28 07:47:13;;;;;;;1.13;1.13;;;20.30;99.90;;;;;;5053615;28;20737;-84
2023/07/28 07:49:39;;;;;;;1.23;1.23;;;20.10;99.90;;;;;;5036028;28;20204;-84
2023/07/28 07:52:06;;;;;;;3.03;1.20;;;20.10;99.90;;;;;;5036545;28;20178;-84
2023/07/28 07:54:32;;;;;;;1.08;1.00;;;20.30;99.90;;;;;;5036236;28;20214;-85
2023/07/28 07:56:58;;;;;;;2.38;1.10;;;20.60;99.90;;;;;;5036206;28;20252;-85
2023/07/28 07:59:27;;;;;;;1.30;1.20;;;20.70;99.90;;;;;;5035934;28;20219;-85
2023/07/28 08:01:53;;;;;;;1.20;1.10;;;20.90;99.90;;;;;;5036100;28;20189;-85
2023/07/28 08:04:19;;;;;;;1.00;1.00;;;20.80;99.90;;;;;;5039678;28;20204;-85
2023/07/28 08:06:45;;;;;;;1.95;1.00;;;20.90;99.90;;;;;;5040681;28;20269;-85
2023/07/28 08:09:10;;;;;;;1.00;1.00;;;21.00;99.90;;;;;;5040119;28;20551;-85
2023/07/28 08:11:36;;;;;;;5.93;1.27;;;21.00;99.90;;;;;;5040886;28;20223;-85
2023/07/28 08:14:02;;;;;;;1.10;1.10;;;21.30;99.90;;;;;;5040643;28;20654;-85
2023/07/28 08:16:27;;;;;;;1.20;1.10;;;21.60;99.90;;;;;;5040551;28;20685;-85
2023/07/28 08:18:53;;;;;;;3.08;2.00;;;21.80;99.90;;;;;;5040602;28;20174;-85
2023/07/28 08:21:19;;;;;;;1.58;1.48;;;22.00;99.90;;;;;;5040192;28;20193;-85
2023/07/28 08:23:45;;;;;;;6.13;1.50;;;22.00;99.90;;;;;;5040887;28;20261;-85
2023/07/28 08:26:11;;;;;;;5.50;1.80;;;21.80;99.90;;;;;;5040182;28;20277;-85
2023/07/28 08:28:36;;;;;;;12.27;1.85;;;22.00;99.90;;;;;;5041044;28;20175;-85
2023/07/28 08:31:03;;;;;;;7.03;1.40;;;22.00;99.90;;;;;;5040387;28;20179;-85
2023/07/28 08:33:29;;;;;;;1.60;1.30;;;22.00;99.90;;;;;;5041167;28;20170;-85
2023/07/28 08:35:55;;;;;;;2.85;1.20;;;22.10;99.90;;;;;;5039961;28;20197;-85
2023/07/28 08:38:21;;;;;;;14.98;2.25;;;22.60;99.90;;;;;;5040157;28;20202;-85
2023/07/28 08:40:46;;;;;;;8.05;1.60;;;23.20;99.90;;;;;;5040171;28;20217;-85
2023/07/28 08:43:12;;;;;;;4.10;1.60;;;23.60;99.90;;;;;;5039965;28;20182;-85
2023/07/28 08:45:38;;;;;;;1.10;0.90;;;23.80;99.90;;;;;;5040702;28;20194;-85
2023/07/28 08:48:04;;;;;;;5.25;2.00;;;23.80;99.90;;;;;;5039765;28;20186;-85
2023/07/28 08:50:31;;;;;;;5.45;1.60;;;24.00;99.90;;;;;;5039589;28;20182;-85
2023/07/28 08:52:57;;;;;;;6.32;0.98;;;24.30;99.90;;;;;;5039841;28;20178;-85
2023/07/28 08:55:23;;;;;;;3.10;1.17;;;24.40;99.90;;;;;;5039784;28;20711;-86
2023/07/28 08:57:48;;;;;;;1.85;1.30;;;24.70;99.90;;;;;;5039366;28;20214;-85
2023/07/28 09:00:17;;;;;;;4.00;0.98;;;25.00;99.90;;;;;;5040243;28;20212;-85
2023/07/28 09:02:43;;;;;;;0.90;0.90;;;25.20;99.90;;;;;;5039150;28;20186;-85
2023/07/28 09:05:20;;;;;;;1.50;1.00;;;25.20;99.90;;;;;;5039950;28;20243;-85
2023/07/28 09:07:47;;;;;;;0.90;0.90;;;24.90;99.90;;;;;;5058673;28;20228;-86
2023/07/28 09:10:13;;;;;;;4.63;1.20;;;24.70;99.90;;;;;;5038601;28;20182;-85
2023/07/28 09:12:46;;;;;;;0.90;0.90;;;24.70;99.90;;;;;;5038798;28;20644;-86
2023/07/28 09:15:11;;;;;;;1.52;1.00;;;24.70;99.90;;;;;;5038568;28;20166;-85
2023/07/28 09:17:45;;;;;;;0.95;0.93;;;24.70;99.90;;;;;;5041648;28;20730;-86
2023/07/28 09:20:15;;;;;;;0.90;0.90;;;24.70;99.90;;;;;;5043941;28;20272;-86
2023/07/28 09:22:42;;;;;;;0.90;0.90;;;24.70;99.90;;;;;;5038437;28;20183;-86
2023/07/28 09:25:16;;;;;;;1.00;0.95;;;24.60;99.90;;;;;;5039359;28;20265;-86
2023/07/28 09:27:52;;;;;;;1.17;0.90;;;24.30;99.90;;;;;;5038688;28;20170;-85
2023/07/28 09:30:18;;;;;;;0.82;0.82;;;24.10;99.90;;;;;;5041063;28;20166;-86
2023/07/28 09:32:48;;;;;;;0.90;0.90;;;23.90;99.90;;;;;;5041410;28;20182;-85
2023/07/28 09:35:14;;;;;;;5.15;1.15;;;24.10;99.90;;;;;;5038464;28;20260;-86
2023/07/28 09:37:42;;;;;;;1.15;0.90;;;24.40;99.90;;;;;;5040320;28;20210;-86
2023/07/28 09:40:12;;;;;;;0.90;0.90;;;24.80;99.90;;;;;;5038309;28;20171;-91
2023/07/28 09:42:39;;;;;;;1.65;1.08;;;25.00;99.90;;;;;;5038818;28;20649;-91
2023/07/28 09:45:06;;;;;;;2.85;1.00;;;25.40;99.90;;;;;;5038774;28;20498;-92
2023/07/28 09:47:44;;;;;;;0.82;0.82;;;25.70;99.90;;;;;;5040338;28;20591;-91
2023/07/28 09:50:10;;;;;;;1.33;0.90;;;25.80;99.90;;;;;;5038869;28;20605;-91
2023/07/28 09:52:44;;;;;;;2.47;0.90;;;25.90;99.90;;;;;;5038679;28;20210;-91
2023/07/28 09:55:12;;;;;;;6.25;1.10;;;25.80;99.90;;;;;;5056303;28;20246;-91
2023/07/28 09:57:46;;;;;;;0.95;0.82;;;25.90;99.90;;;;;;5038277;28;20202;-91
2023/07/28 10:00:15;;;;;;;1.48;0.95;;;26.10;99.90;;;;;;5037561;28;20177;-91
2023/07/28 10:02:41;;;;;;;1.85;1.15;;;26.00;99.90;;;;;;5037813;28;20548;-91
2023/07/28 10:05:07;;;;;;;0.82;0.82;;;26.20;99.90;;;;;;5037476;28;20185;-91
2023/07/28 10:07:40;;;;;;;0.80;0.80;;;26.00;99.90;;;;;;5038716;28;20206;-91
2023/07/28 10:10:09;;;;;;;0.98;0.80;;;26.10;99.90;;;;;;5037892;28;20232;-91
2023/07/28 10:12:50;;;;;;;2.55;1.00;;;26.20;99.90;;;;;;5037455;28;20274;-91
2023/07/28 10:15:19;;;;;;;1.55;1.20;;;26.20;99.90;;;;;;5037947;28;20166;-92
2023/07/28 10:17:57;;;;;;;1.10;1.00;;;26.30;99.90;;;;;;5038152;28;20751;-91
2023/07/28 10:20:27;;;;;;;1.38;1.10;;;25.90;99.90;;;;;;5037383;28;20633;-91
2023/07/28 10:22:53;;;;;;;0.82;0.82;;;25.90;99.90;;;;;;5038091;28;20202;-91
2023/07/28 10:25:24;;;;;;;1.75;1.05;;;25.80;99.90;;;;;;5037711;28;20527;-91
2023/07/28 10:27:51;;;;;;;0.70;0.70;;;25.60;99.90;;;;;;5036734;28;20705;-91
2023/07/28 10:30:18;;;;;;;1.10;1.10;;;25.30;99.90;;;;;;5037186;28;20248;-91
2023/07/28 10:32:45;;;;;;;1.05;1.05;;;24.70;99.90;;;;;;5036917;28;20190;-91
2023/07/28 10:35:14;;;;;;;8.55;1.48;;;24.40;99.90;;;;;;5037231;28;20178;-91
2023/07/28 10:37:49;;;;;;;1.48;0.82;;;24.20;99.90;;;;;;5055358;28;20202;-91
2023/07/28 10:40:34;;;;;;;1.13;0.90;;;24.10;99.90;;;;;;5036874;28;20229;-91
2023/07/28 10:43:00;;;;;;;5.78;1.40;;;24.00;99.90;;;;;;5037586;28;20240;-90
2023/07/28 10:45:28;;;;;;;1.80;1.10;;;23.90;99.90;;;;;;5037166;28;20661;-91
2023/07/28 10:47:56;;;;;;;6.07;1.20;;;23.70;99.90;;;;;;5037626;28;20234;-91
2023/07/28 10:50:23;;;;;;;1.52;0.90;;;23.60;99.90;;;;;;5036718;28;20184;-90
2023/07/28 10:52:54;;;;;;;1.00;1.00;;;23.70;99.90;;;;;;5036691;28;20178;-90
2023/07/28 10:55:28;;;;;;;1.00;1.00;;;23.60;99.90;;;;;;5037179;28;20651;-90
2023/07/28 10:57:58;;;;;;;1.00;1.00;;;23.60;99.90;;;;;;5054190;28;20303;-87
2023/07/28 11:00:25;;;;;;;0.90;0.90;;;23.50;99.90;;;;;;5037327;28;20269;-91
2023/07/28 11:02:52;;;;;;;0.80;0.80;;;23.50;99.90;;;;;;5036631;28;20173;-86
2023/07/28 11:05:32;;;;;;;0.70;0.70;;;23.50;99.90;;;;;;5037304;28;20181;-86
2023/07/28 11:08:02;;;;;;;1.15;1.15;;;23.70;99.90;;;;;;5036253;28;20177;-86
2023/07/28 11:10:32;;;;;;;0.85;0.82;;;24.10;99.90;;;;;;5036683;28;20220;-86
2023/07/28 11:13:03;;;;;;;0.93;0.70;;;24.60;99.90;;;;;;5036592;28;20210;-86
2023/07/28 11:15:31;;;;;;;1.05;0.90;;;25.00;99.90;;;;;;5054077;28;20181;-86
2023/07/28 11:17:57;;;;;;;1.23;1.00;;;25.00;99.90;;;;;;5036917;28;20205;-88
2023/07/28 11:20:25;;;;;;;0.77;0.77;;;24.90;99.90;;;;;;5036713;28;20194;-86
2023/07/28 11:22:56;;;;;;;1.27;0.85;;;24.90;99.90;;;;;;5036906;28;20178;-86
2023/07/28 11:25:24;;;;;;;0.73;0.73;;;25.00;99.90;;;;;;5036881;28;20536;-89
2023/07/28 11:27:53;;;;;;;3.60;0.90;;;25.50;99.90;;;;;;5035985;28;20167;-90
2023/07/28 11:30:20;;;;;;;0.90;0.90;;;25.80;99.90;;;;;;5037871;28;20174;-91
2023/07/28 11:32:51;;;;;;;0.90;0.90;;;26.20;99.90;;;;;;5036220;28;20645;-87
2023/07/28 11:35:18;;;;;;;2.15;0.85;;;26.50;99.90;;;;;;5036692;28;20174;-88
2023/07/28 11:37:47;;;;;;;1.23;0.77;;;27.00;99.30;;;;;;5035946;28;20198;-87
2023/07/28 11:40:15;;;;;;;2.65;0.90;;;27.10;98.70;;;;;;5036024;28;20181;-88
2023/07/28 11:42:55;;;;;;;1.50;0.98;;;27.00;98.20;;;;;;5036244;28;20193;-88
2023/07/28 11:45:24;;;;;;;1.52;0.90;;;26.80;98.70;;;;;;5037093;28;20649;-88
2023/07/28 11:47:56;;;;;;;1.63;1.15;;;26.60;98.00;;;;;;5035800;28;20204;-90
2023/07/28 11:50:35;;;;;;;1.02;1.00;;;26.40;98.20;;;;;;5037773;28;20216;-90
2023/07/28 11:53:01;;;;;;;0.95;0.95;;;26.20;99.20;;;;;;5036022;28;20201;-90
2023/07/28 11:55:26;;;;;;;2.63;1.00;;;25.80;99.40;;;;;;5037275;28;20205;-90
2023/07/28 11:58:08;;;;;;;1.02;0.93;;;25.90;99.90;;;;;;5036175;28;20623;-90
2023/07/28 12:00:36;;;;;;;0.95;0.80;;;26.20;99.90;;;;;;5037548;28;20178;-88
2023/07/28 12:03:12;;;;;;;1.35;0.80;;;26.40;99.40;;;;;;5038504;28;20718;-88
2023/07/28 12:05:39;;;;;;;2.00;0.88;;;26.50;98.50;;;;;;5039445;28;20205;-88
2023/07/28 12:08:07;;;;;;;1.27;0.95;;;26.70;98.70;;;;;;5038112;28;20186;-88
2023/07/28 12:10:33;;;;;;;1.52;0.75;;;26.80;98.10;;;;;;5037118;28;20828;-88
2023/07/28 12:13:07;;;;;;;1.10;0.95;;;26.60;96.80;;;;;;5036042;28;20178;-88
2023/07/28 12:15:34;;;;;;;2.25;1.15;;;26.30;97.50;;;;;;5035285;28;20202;-88
2023/07/28 12:18:16;;;;;;;2.22;0.90;;;25.90;99.00;;;;;;5035953;28;20206;-88
2023/07/28 12:20:47;;;;;;;0.82;0.82;;;25.70;99.80;;;;;;5035796;28;20197;-87
2023/07/28 12:23:17;;;;;;;1.30;1.20;;;25.50;99.90;;;;;;5036303;28;20224;-88
2023/07/28 12:25:44;;;;;;;4.35;1.13;;;25.50;99.80;;;;;;5035569;28;20234;-87
2023/07/28 12:28:10;;;;;;;3.97;1.10;;;25.40;99.90;;;;;;5036309;28;20198;-88
2023/07/28 12:30:37;;;;;;;2.85;1.17;;;25.60;99.90;;;;;;5035834;28;20205;-88
2023/07/28 12:33:03;;;;;;;1.15;0.90;;;25.80;99.90;;;;;;5036116;28;20210;-88
2023/07/28 12:35:31;;;;;;;2.58;0.90;;;25.90;99.80;;;;;;5035474;28;20225;-89
2023/07/28 12:37:59;;;;;;;0.90;0.90;;;25.90;99.10;;;;;;5035195;28;20641;-88
2023/07/28 12:40:27;;;;;;;2.38;1.10;;;25.70;99.20;;;;;;5036118;28;20224;-88
2023/07/28 12:42:54;;;;;;;0.90;0.90;;;25.30;99.90;;;;;;5035118;28;20201;-87
2023/07/28 12:45:20;;;;;;;1.88;0.93;;;25.10;99.90;;;;;;5035357;28;20178;-87
2023/07/28 12:47:46;;;;;;;1.00;1.00;;;24.90;99.90;;;;;;5035071;28;20178;-87
2023/07/28 12:50:12;;;;;;;1.05;1.00;;;25.00;99.90;;;;;;5037149;28;20182;-88
2023/07/28 12:52:38;;;;;;;0.85;0.82;;;25.10;99.90;;;;;;5038872;28;20182;-88
2023/07/28 12:55:04;;;;;;;0.80;0.80;;;25.20;99.90;;;;;;5038759;28;20641;-87
2023/07/28 12:57:31;;;;;;;1.40;0.80;;;25.40;99.90;;;;;;5038792;28;20214;-87
2023/07/28 12:59:56;;;;;;;1.00;1.00;;;25.40;99.50;;;;;;5038479;28;20193;-88
2023/07/28 13:02:22;;;;;;;0.98;0.93;;;25.60;99.40;;;;;;5038890;28;20174;-87
2023/07/28 13:04:48;;;;;;;2.60;0.95;;;25.90;99.50;;;;;;5038760;28;20209;-87
2023/07/28 13:07:14;;;;;;;1.02;0.85;;;26.10;98.80;;;;;;5038777;28;20292;-88